sensor_id;sensor_type;location;lat;lon;timestamp;temperature;humidity
51619;DHT22;38518;53.164;5.430;2023-02-01T00:00:17;5.80;81.80
51619;DHT22;38518;53.164;5.430;2023-02-01T00:02:43;5.80;92.20
51619;DHT22;38518;53.164;5.430;2023-02-01T00:05:09;5.80;92.00
51619;DHT22;38518;53.164;5.430;2023-02-01T00:07:36;5.70;90.90
51619;DHT22;38518;53.164;5.430;2023-02-01T00:10:03;5.70;91.70
51619;DHT22;38518;53.164;5.430;2023-02-01T00:12:30;5.80;92.80
51619;DHT22;38518;53.164;5.430;2023-02-01T00:14:56;5.60;92.50
51619;DHT22;38518;53.164;5.430;2023-02-01T00:17:22;5.80;94.40
51619;DHT22;38518;53.164;5.430;2023-02-01T00:19:48;5.80;96.50
51619;DHT22;38518;53.164;5.430;2023-02-01T00:22:14;5.70;92.10
51619;DHT22;38518;53.164;5.430;2023-02-01T00:24:40;6.00;99.70
51619;DHT22;38518;53.164;5.430;2023-02-01T00:27:06;5.80;96.60
51619;DHT22;38518;53.164;5.430;2023-02-01T00:29:31;5.90;95.30
51619;DHT22;38518;53.164;5.430;2023-02-01T00:31:57;6.20;96.40
51619;DHT22;38518;53.164;5.430;2023-02-01T00:34:23;5.80;94.90
51619;DHT22;38518;53.164;5.430;2023-02-01T00:36:51;7.10;95.70
51619;DHT22;38518;53.164;5.430;2023-02-01T00:39:17;5.80;93.40
51619;DHT22;38518;53.164;5.430;2023-02-01T00:41:43;6.40;95.20
51619;DHT22;38518;53.164;5.430;2023-02-01T00:44:09;5.90;88.90
51619;DHT22;38518;53.164;5.430;2023-02-01T00:46:35;5.90;88.30
51619;DHT22;38518;53.164;5.430;2023-02-01T00:49:00;5.90;78.50
51619;DHT22;38518;53.164;5.430;2023-02-01T00:51:28;6.20;74.70
51619;DHT22;38518;53.164;5.430;2023-02-01T00:53:54;6.10;76.70
51619;DHT22;38518;53.164;5.430;2023-02-01T00:56:20;5.90;62.00
51619;DHT22;38518;53.164;5.430;2023-02-01T00:58:46;5.90;81.90
51619;DHT22;38518;53.164;5.430;2023-02-01T01:01:18;6.90;83.30
51619;DHT22;38518;53.164;5.430;2023-02-01T01:03:47;6.00;77.10
51619;DHT22;38518;53.164;5.430;2023-02-01T01:06:20;5.90;82.20
51619;DHT22;38518;53.164;5.430;2023-02-01T01:08:47;6.10;81.70
51619;DHT22;38518;53.164;5.430;2023-02-01T01:11:16;7.30;84.60
51619;DHT22;38518;53.164;5.430;2023-02-01T01:13:42;6.70;85.20
51619;DHT22;38518;53.164;5.430;2023-02-01T01:16:09;6.00;92.20
51619;DHT22;38518;53.164;5.430;2023-02-01T01:18:36;6.10;81.90
51619;DHT22;38518;53.164;5.430;2023-02-01T01:21:04;6.00;80.20
51619;DHT22;38518;53.164;5.430;2023-02-01T01:23:30;6.00;84.90
51619;DHT22;38518;53.164;5.430;2023-02-01T01:25:57;6.00;80.70
51619;DHT22;38518;53.164;5.430;2023-02-01T01:28:23;6.00;80.50
51619;DHT22;38518;53.164;5.430;2023-02-01T01:30:49;6.10;81.80
51619;DHT22;38518;53.164;5.430;2023-02-01T01:33:15;6.10;77.10
51619;DHT22;38518;53.164;5.430;2023-02-01T01:35:40;6.20;87.10
51619;DHT22;38518;53.164;5.430;2023-02-01T01:38:06;6.10;91.30
51619;DHT22;38518;53.164;5.430;2023-02-01T01:40:32;6.70;92.70
51619;DHT22;38518;53.164;5.430;2023-02-01T01:42:58;6.00;92.00
51619;DHT22;38518;53.164;5.430;2023-02-01T01:45:27;6.10;94.60
51619;DHT22;38518;53.164;5.430;2023-02-01T01:47:59;6.00;93.20
51619;DHT22;38518;53.164;5.430;2023-02-01T01:50:35;4.70;94.20
51619;DHT22;38518;53.164;5.430;2023-02-01T01:53:04;6.30;91.60
51619;DHT22;38518;53.164;5.430;2023-02-01T01:55:37;5.60;92.30
51619;DHT22;38518;53.164;5.430;2023-02-01T01:58:07;6.30;92.80
51619;DHT22;38518;53.164;5.430;2023-02-01T02:00:34;6.80;93.60
51619;DHT22;38518;53.164;5.430;2023-02-01T02:03:23;5.90;92.40
51619;DHT22;38518;53.164;5.430;2023-02-01T02:05:52;7.20;91.40
51619;DHT22;38518;53.164;5.430;2023-02-01T02:08:20;6.00;91.10
51619;DHT22;38518;53.164;5.430;2023-02-01T02:10:51;7.10;92.10
51619;DHT22;38518;53.164;5.430;2023-02-01T02:13:32;6.10;89.70
51619;DHT22;38518;53.164;5.430;2023-02-01T02:16:12;6.00;84.60
51619;DHT22;38518;53.164;5.430;2023-02-01T02:27:51;6.00;83.30
51619;DHT22;38518;53.164;5.430;2023-02-01T02:39:03;6.10;91.70
51619;DHT22;38518;53.164;5.430;2023-02-01T02:41:41;6.00;89.30
51619;DHT22;38518;53.164;5.430;2023-02-01T02:44:49;5.90;92.50
51619;DHT22;38518;53.164;5.430;2023-02-01T02:53:38;5.90;93.60
51619;DHT22;38518;53.164;5.430;2023-02-01T02:56:26;5.90;92.40
51619;DHT22;38518;53.164;5.430;2023-02-01T02:59:13;6.10;94.70
51619;DHT22;38518;53.164;5.430;2023-02-01T03:01:58;5.90;94.00
51619;DHT22;38518;53.164;5.430;2023-02-01T03:04:42;6.00;93.90
51619;DHT22;38518;53.164;5.430;2023-02-01T03:12:53;6.00;77.40
51619;DHT22;38518;53.164;5.430;2023-02-01T03:15:30;6.00;80.30
51619;DHT22;38518;53.164;5.430;2023-02-01T03:17:58;6.00;83.80
51619;DHT22;38518;53.164;5.430;2023-02-01T03:20:27;6.00;84.20
51619;DHT22;38518;53.164;5.430;2023-02-01T03:22:54;6.00;87.00
51619;DHT22;38518;53.164;5.430;2023-02-01T03:25:27;6.00;89.40
51619;DHT22;38518;53.164;5.430;2023-02-01T03:27:58;4.80;92.00
51619;DHT22;38518;53.164;5.430;2023-02-01T03:30:36;6.20;89.70
51619;DHT22;38518;53.164;5.430;2023-02-01T03:33:05;6.10;90.70
51619;DHT22;38518;53.164;5.430;2023-02-01T03:38:33;6.30;91.40
51619;DHT22;38518;53.164;5.430;2023-02-01T03:43:56;6.10;90.40
51619;DHT22;38518;53.164;5.430;2023-02-01T03:46:49;6.00;91.90
51619;DHT22;38518;53.164;5.430;2023-02-01T03:49:20;6.40;90.10
51619;DHT22;38518;53.164;5.430;2023-02-01T03:51:50;6.10;92.50
51619;DHT22;38518;53.164;5.430;2023-02-01T03:54:18;6.10;90.90
51619;DHT22;38518;53.164;5.430;2023-02-01T03:56:46;6.00;88.90
51619;DHT22;38518;53.164;5.430;2023-02-01T03:59:13;6.00;89.20
51619;DHT22;38518;53.164;5.430;2023-02-01T04:01:39;7.20;94.80
51619;DHT22;38518;53.164;5.430;2023-02-01T04:04:06;6.00;98.10
51619;DHT22;38518;53.164;5.430;2023-02-01T04:06:32;5.90;96.30
51619;DHT22;38518;53.164;5.430;2023-02-01T04:08:58;6.00;96.70
51619;DHT22;38518;53.164;5.430;2023-02-01T04:11:23;6.10;99.90
51619;DHT22;38518;53.164;5.430;2023-02-01T04:13:49;6.60;99.90
51619;DHT22;38518;53.164;5.430;2023-02-01T04:16:15;5.80;99.90
51619;DHT22;38518;53.164;5.430;2023-02-01T04:18:41;5.80;99.90
51619;DHT22;38518;53.164;5.430;2023-02-01T04:21:07;6.40;99.90
51619;DHT22;38518;53.164;5.430;2023-02-01T04:23:33;6.00;99.90
51619;DHT22;38518;53.164;5.430;2023-02-01T04:25:59;5.50;99.90
51619;DHT22;38518;53.164;5.430;2023-02-01T04:28:32;5.20;99.90
51619;DHT22;38518;53.164;5.430;2023-02-01T04:30:58;5.80;99.90
51619;DHT22;38518;53.164;5.430;2023-02-01T04:33:24;6.50;99.90
51619;DHT22;38518;53.164;5.430;2023-02-01T04:35:50;5.60;99.90
51619;DHT22;38518;53.164;5.430;2023-02-01T04:38:16;5.60;99.90
51619;DHT22;38518;53.164;5.430;2023-02-01T04:40:42;5.80;99.90
51619;DHT22;38518;53.164;5.430;2023-02-01T04:43:08;3.90;99.90
51619;DHT22;38518;53.164;5.430;2023-02-01T04:45:34;5.60;99.90
51619;DHT22;38518;53.164;5.430;2023-02-01T04:47:59;4.10;99.90
51619;DHT22;38518;53.164;5.430;2023-02-01T04:50:25;5.60;99.90
51619;DHT22;38518;53.164;5.430;2023-02-01T04:52:51;5.60;99.90
51619;DHT22;38518;53.164;5.430;2023-02-01T04:55:17;5.60;99.90
51619;DHT22;38518;53.164;5.430;2023-02-01T04:57:42;5.80;99.90
51619;DHT22;38518;53.164;5.430;2023-02-01T05:00:11;6.60;99.90
51619;DHT22;38518;53.164;5.430;2023-02-01T05:02:38;5.60;99.90
51619;DHT22;38518;53.164;5.430;2023-02-01T05:05:05;5.50;99.90
51619;DHT22;38518;53.164;5.430;2023-02-01T05:07:30;5.50;99.90
51619;DHT22;38518;53.164;5.430;2023-02-01T05:09:56;5.70;99.90
51619;DHT22;38518;53.164;5.430;2023-02-01T05:12:22;6.20;99.90
51619;DHT22;38518;53.164;5.430;2023-02-01T05:15:06;5.60;99.90
51619;DHT22;38518;53.164;5.430;2023-02-01T05:17:32;5.60;99.90
51619;DHT22;38518;53.164;5.430;2023-02-01T05:19:58;5.60;99.90
51619;DHT22;38518;53.164;5.430;2023-02-01T05:22:24;5.70;99.90
51619;DHT22;38518;53.164;5.430;2023-02-01T05:24:49;5.60;99.90
51619;DHT22;38518;53.164;5.430;2023-02-01T05:27:15;6.30;99.90
51619;DHT22;38518;53.164;5.430;2023-02-01T05:29:41;5.70;99.90
51619;DHT22;38518;53.164;5.430;2023-02-01T05:32:08;5.90;99.90
51619;DHT22;38518;53.164;5.430;2023-02-01T05:34:34;5.90;99.90
51619;DHT22;38518;53.164;5.430;2023-02-01T05:37:00;5.70;99.90
51619;DHT22;38518;53.164;5.430;2023-02-01T05:39:26;5.70;99.90
51619;DHT22;38518;53.164;5.430;2023-02-01T05:41:52;5.90;99.90
51619;DHT22;38518;53.164;5.430;2023-02-01T05:44:17;6.20;99.90
51619;DHT22;38518;53.164;5.430;2023-02-01T05:46:43;4.70;99.90
51619;DHT22;38518;53.164;5.430;2023-02-01T05:49:09;7.00;99.90
51619;DHT22;38518;53.164;5.430;2023-02-01T05:51:35;5.60;99.90
51619;DHT22;38518;53.164;5.430;2023-02-01T05:54:00;6.10;99.90
51619;DHT22;38518;53.164;5.430;2023-02-01T05:56:26;5.40;99.90
51619;DHT22;38518;53.164;5.430;2023-02-01T05:58:52;5.50;99.90
51619;DHT22;38518;53.164;5.430;2023-02-01T06:01:18;6.00;99.90
51619;DHT22;38518;53.164;5.430;2023-02-01T06:03:44;6.00;99.90
51619;DHT22;38518;53.164;5.430;2023-02-01T06:06:09;5.70;99.90
51619;DHT22;38518;53.164;5.430;2023-02-01T06:08:35;5.10;99.90
51619;DHT22;38518;53.164;5.430;2023-02-01T06:11:03;5.80;99.90
51619;DHT22;38518;53.164;5.430;2023-02-01T06:13:29;5.80;99.90
51619;DHT22;38518;53.164;5.430;2023-02-01T06:15:55;5.70;99.90
51619;DHT22;38518;53.164;5.430;2023-02-01T06:18:23;5.70;99.90
51619;DHT22;38518;53.164;5.430;2023-02-01T06:20:57;5.70;99.90
51619;DHT22;38518;53.164;5.430;2023-02-01T06:23:23;5.80;99.90
51619;DHT22;38518;53.164;5.430;2023-02-01T06:25:57;5.80;99.90
51619;DHT22;38518;53.164;5.430;2023-02-01T06:28:25;5.60;99.90
51619;DHT22;38518;53.164;5.430;2023-02-01T06:30:50;6.50;99.90
51619;DHT22;38518;53.164;5.430;2023-02-01T06:33:16;5.60;99.90
51619;DHT22;38518;53.164;5.430;2023-02-01T06:35:43;4.90;99.90
51619;DHT22;38518;53.164;5.430;2023-02-01T06:38:13;6.40;99.90
51619;DHT22;38518;53.164;5.430;2023-02-01T06:40:39;5.40;99.90
51619;DHT22;38518;53.164;5.430;2023-02-01T06:43:07;5.60;99.90
51619;DHT22;38518;53.164;5.430;2023-02-01T06:45:33;5.90;99.90
51619;DHT22;38518;53.164;5.430;2023-02-01T06:47:59;5.80;99.90
51619;DHT22;38518;53.164;5.430;2023-02-01T06:50:27;5.50;99.90
51619;DHT22;38518;53.164;5.430;2023-02-01T06:52:53;5.40;99.90
51619;DHT22;38518;53.164;5.430;2023-02-01T06:55:19;5.40;99.90
51619;DHT22;38518;53.164;5.430;2023-02-01T06:57:44;5.50;99.90
51619;DHT22;38518;53.164;5.430;2023-02-01T07:00:10;6.50;99.90
51619;DHT22;38518;53.164;5.430;2023-02-01T07:02:36;5.40;99.90
51619;DHT22;38518;53.164;5.430;2023-02-01T07:05:03;6.00;99.90
51619;DHT22;38518;53.164;5.430;2023-02-01T07:07:29;6.00;99.90
51619;DHT22;38518;53.164;5.430;2023-02-01T07:09:55;6.10;99.90
51619;DHT22;38518;53.164;5.430;2023-02-01T07:12:21;5.30;99.90
51619;DHT22;38518;53.164;5.430;2023-02-01T07:14:46;6.20;99.90
51619;DHT22;38518;53.164;5.430;2023-02-01T07:17:12;5.40;99.90
51619;DHT22;38518;53.164;5.430;2023-02-01T07:19:38;5.60;99.90
51619;DHT22;38518;53.164;5.430;2023-02-01T07:22:04;4.60;99.90
51619;DHT22;38518;53.164;5.430;2023-02-01T07:24:29;5.50;99.90
51619;DHT22;38518;53.164;5.430;2023-02-01T07:26:56;5.60;99.90
51619;DHT22;38518;53.164;5.430;2023-02-01T07:29:22;5.40;99.90
51619;DHT22;38518;53.164;5.430;2023-02-01T07:31:48;5.60;99.90
51619;DHT22;38518;53.164;5.430;2023-02-01T07:34:14;5.40;99.90
51619;DHT22;38518;53.164;5.430;2023-02-01T07:36:40;5.60;99.90
51619;DHT22;38518;53.164;5.430;2023-02-01T07:39:05;5.50;99.90
51619;DHT22;38518;53.164;5.430;2023-02-01T07:41:32;5.60;99.90
51619;DHT22;38518;53.164;5.430;2023-02-01T07:43:58;5.60;99.90
51619;DHT22;38518;53.164;5.430;2023-02-01T07:46:24;5.70;99.90
51619;DHT22;38518;53.164;5.430;2023-02-01T07:48:50;5.50;99.90
51619;DHT22;38518;53.164;5.430;2023-02-01T07:51:16;5.70;99.90
51619;DHT22;38518;53.164;5.430;2023-02-01T07:53:43;5.50;99.90
51619;DHT22;38518;53.164;5.430;2023-02-01T07:56:11;6.40;99.90
51619;DHT22;38518;53.164;5.430;2023-02-01T07:58:38;5.90;99.90
51619;DHT22;38518;53.164;5.430;2023-02-01T08:01:23;5.50;99.90
51619;DHT22;38518;53.164;5.430;2023-02-01T08:03:57;5.20;99.90
51619;DHT22;38518;53.164;5.430;2023-02-01T08:06:25;6.60;99.90
51619;DHT22;38518;53.164;5.430;2023-02-01T08:08:52;6.10;99.90
51619;DHT22;38518;53.164;5.430;2023-02-01T08:11:19;5.90;99.90
51619;DHT22;38518;53.164;5.430;2023-02-01T08:13:45;5.90;99.90
51619;DHT22;38518;53.164;5.430;2023-02-01T08:16:12;6.00;99.90
51619;DHT22;38518;53.164;5.430;2023-02-01T08:18:39;6.00;99.90
51619;DHT22;38518;53.164;5.430;2023-02-01T08:23:39;6.00;99.90
51619;DHT22;38518;53.164;5.430;2023-02-01T08:26:25;6.00;99.90
51619;DHT22;38518;53.164;5.430;2023-02-01T08:28:56;6.00;99.90
51619;DHT22;38518;53.164;5.430;2023-02-01T08:31:24;5.90;99.90
51619;DHT22;38518;53.164;5.430;2023-02-01T08:33:53;6.00;99.90
51619;DHT22;38518;53.164;5.430;2023-02-01T08:36:19;6.00;99.90
51619;DHT22;38518;53.164;5.430;2023-02-01T08:38:45;6.30;99.90
51619;DHT22;38518;53.164;5.430;2023-02-01T08:41:14;6.00;99.90
51619;DHT22;38518;53.164;5.430;2023-02-01T08:43:41;6.00;99.90
51619;DHT22;38518;53.164;5.430;2023-02-01T08:46:07;6.00;99.90
51619;DHT22;38518;53.164;5.430;2023-02-01T08:48:33;6.10;99.90
51619;DHT22;38518;53.164;5.430;2023-02-01T08:51:08;6.00;99.90
51619;DHT22;38518;53.164;5.430;2023-02-01T08:53:35;6.00;99.90
51619;DHT22;38518;53.164;5.430;2023-02-01T08:56:02;6.20;99.90
51619;DHT22;38518;53.164;5.430;2023-02-01T08:58:28;6.00;99.90
51619;DHT22;38518;53.164;5.430;2023-02-01T09:00:54;6.00;99.90
51619;DHT22;38518;53.164;5.430;2023-02-01T09:03:19;6.00;99.90
51619;DHT22;38518;53.164;5.430;2023-02-01T09:05:45;5.30;99.90
51619;DHT22;38518;53.164;5.430;2023-02-01T09:08:11;6.10;99.90
51619;DHT22;38518;53.164;5.430;2023-02-01T09:10:41;6.10;99.90
51619;DHT22;38518;53.164;5.430;2023-02-01T09:13:08;6.10;99.90
51619;DHT22;38518;53.164;5.430;2023-02-01T09:15:34;6.10;99.90
51619;DHT22;38518;53.164;5.430;2023-02-01T09:18:01;6.10;99.90
51619;DHT22;38518;53.164;5.430;2023-02-01T09:20:27;6.10;99.90
51619;DHT22;38518;53.164;5.430;2023-02-01T09:22:55;6.10;99.90
51619;DHT22;38518;53.164;5.430;2023-02-01T09:25:20;6.10;99.90
51619;DHT22;38518;53.164;5.430;2023-02-01T09:27:46;6.10;99.90
51619;DHT22;38518;53.164;5.430;2023-02-01T09:30:12;6.30;99.90
51619;DHT22;38518;53.164;5.430;2023-02-01T09:32:38;6.20;99.90
51619;DHT22;38518;53.164;5.430;2023-02-01T09:35:04;6.20;99.90
51619;DHT22;38518;53.164;5.430;2023-02-01T09:37:29;6.20;99.90
51619;DHT22;38518;53.164;5.430;2023-02-01T09:39:55;6.30;99.90
51619;DHT22;38518;53.164;5.430;2023-02-01T09:47:48;6.20;99.90
51619;DHT22;38518;53.164;5.430;2023-02-01T09:50:22;6.50;99.90
51619;DHT22;38518;53.164;5.430;2023-02-01T09:52:57;6.30;99.90
51619;DHT22;38518;53.164;5.430;2023-02-01T09:55:47;6.30;99.90
51619;DHT22;38518;53.164;5.430;2023-02-01T09:58:36;6.40;99.90
51619;DHT22;38518;53.164;5.430;2023-02-01T10:01:04;6.40;99.90
51619;DHT22;38518;53.164;5.430;2023-02-01T10:03:34;6.60;99.90
51619;DHT22;38518;53.164;5.430;2023-02-01T10:16:57;6.90;91.90
51619;DHT22;38518;53.164;5.430;2023-02-01T10:25:16;7.10;84.90
51619;DHT22;38518;53.164;5.430;2023-02-01T10:27:45;7.20;82.70
51619;DHT22;38518;53.164;5.430;2023-02-01T10:30:21;7.40;82.90
51619;DHT22;38518;53.164;5.430;2023-02-01T10:33:18;7.50;72.30
51619;DHT22;38518;53.164;5.430;2023-02-01T10:35:47;7.40;64.40
51619;DHT22;38518;53.164;5.430;2023-02-01T10:38:29;7.40;61.70
51619;DHT22;38518;53.164;5.430;2023-02-01T10:41:00;7.40;58.20
51619;DHT22;38518;53.164;5.430;2023-02-01T10:43:27;7.50;57.80
51619;DHT22;38518;53.164;5.430;2023-02-01T10:45:53;7.40;66.90
51619;DHT22;38518;53.164;5.430;2023-02-01T10:48:19;6.20;58.50
51619;DHT22;38518;53.164;5.430;2023-02-01T10:50:58;7.50;56.80
51619;DHT22;38518;53.164;5.430;2023-02-01T10:56:25;7.30;61.00
51619;DHT22;38518;53.164;5.430;2023-02-01T10:59:00;7.30;67.00
51619;DHT22;38518;53.164;5.430;2023-02-01T11:01:42;7.20;72.40
51619;DHT22;38518;53.164;5.430;2023-02-01T11:04:13;7.10;81.90
51619;DHT22;38518;53.164;5.430;2023-02-01T11:06:48;7.10;90.00
51619;DHT22;38518;53.164;5.430;2023-02-01T11:09:21;5.80;92.90
51619;DHT22;38518;53.164;5.430;2023-02-01T11:14:18;6.90;97.40
51619;DHT22;38518;53.164;5.430;2023-02-01T11:19:45;7.00;96.50
51619;DHT22;38518;53.164;5.430;2023-02-01T11:22:12;7.10;96.40
51619;DHT22;38518;53.164;5.430;2023-02-01T11:24:40;7.10;95.10
51619;DHT22;38518;53.164;5.430;2023-02-01T11:27:28;7.10;91.90
51619;DHT22;38518;53.164;5.430;2023-02-01T11:30:00;7.20;88.40
51619;DHT22;38518;53.164;5.430;2023-02-01T11:32:27;7.20;83.50
51619;DHT22;38518;53.164;5.430;2023-02-01T11:35:03;7.20;81.10
51619;DHT22;38518;53.164;5.430;2023-02-01T11:37:35;7.10;81.80
51619;DHT22;38518;53.164;5.430;2023-02-01T11:40:22;7.10;88.40
51619;DHT22;38518;53.164;5.430;2023-02-01T11:42:58;7.20;92.00
51619;DHT22;38518;53.164;5.430;2023-02-01T11:45:30;7.20;93.10
51619;DHT22;38518;53.164;5.430;2023-02-01T11:47:57;7.30;92.20
51619;DHT22;38518;53.164;5.430;2023-02-01T11:53:25;7.30;93.60
51619;DHT22;38518;53.164;5.430;2023-02-01T11:55:56;7.30;94.40
51619;DHT22;38518;53.164;5.430;2023-02-01T12:06:53;7.30;96.70
51619;DHT22;38518;53.164;5.430;2023-02-01T12:12:21;7.30;99.90
51619;DHT22;38518;53.164;5.430;2023-02-01T12:18:13;7.20;99.90
51619;DHT22;38518;53.164;5.430;2023-02-01T12:23:52;7.20;99.90
51619;DHT22;38518;53.164;5.430;2023-02-01T12:43:20;7.90;99.90
51619;DHT22;38518;53.164;5.430;2023-02-01T12:46:04;7.80;99.90
51619;DHT22;38518;53.164;5.430;2023-02-01T12:51:36;8.50;89.70
51619;DHT22;38518;53.164;5.430;2023-02-01T12:56:57;8.20;71.80
51619;DHT22;38518;53.164;5.430;2023-02-01T12:59:51;8.10;80.00
51619;DHT22;38518;53.164;5.430;2023-02-01T13:02:30;8.10;81.80
51619;DHT22;38518;53.164;5.430;2023-02-01T13:05:22;8.00;84.70
51619;DHT22;38518;53.164;5.430;2023-02-01T13:08:23;8.00;90.20
51619;DHT22;38518;53.164;5.430;2023-02-01T13:11:12;7.90;91.40
51619;DHT22;38518;53.164;5.430;2023-02-01T13:16:28;6.40;96.90
51619;DHT22;38518;53.164;5.430;2023-02-01T13:22:40;7.90;99.90
51619;DHT22;38518;53.164;5.430;2023-02-01T13:27:41;8.10;97.60
51619;DHT22;38518;53.164;5.430;2023-02-01T13:36:52;7.80;99.90
51619;DHT22;38518;53.164;5.430;2023-02-01T13:39:48;8.80;99.90
51619;DHT22;38518;53.164;5.430;2023-02-01T13:42:29;7.70;99.90
51619;DHT22;38518;53.164;5.430;2023-02-01T13:45:01;7.80;99.90
51619;DHT22;38518;53.164;5.430;2023-02-01T13:47:39;7.90;99.90
51619;DHT22;38518;53.164;5.430;2023-02-01T13:53:01;8.00;99.90
51619;DHT22;38518;53.164;5.430;2023-02-01T13:55:41;7.90;99.90
51619;DHT22;38518;53.164;5.430;2023-02-01T13:58:15;7.90;99.90
51619;DHT22;38518;53.164;5.430;2023-02-01T14:00:43;8.00;99.90
51619;DHT22;38518;53.164;5.430;2023-02-01T14:03:17;7.80;99.90
51619;DHT22;38518;53.164;5.430;2023-02-01T14:08:12;8.00;99.90
51619;DHT22;38518;53.164;5.430;2023-02-01T14:16:18;9.60;85.40
51619;DHT22;38518;53.164;5.430;2023-02-01T14:21:32;10.50;24.80
51619;DHT22;38518;53.164;5.430;2023-02-01T14:26:51;11.00;10.10
51619;DHT22;38518;53.164;5.430;2023-02-01T14:29:32;11.30;1.00
51619;DHT22;38518;53.164;5.430;2023-02-01T14:37:22;11.90;1.00
51619;DHT22;38518;53.164;5.430;2023-02-01T14:42:53;11.80;1.00
51619;DHT22;38518;53.164;5.430;2023-02-01T14:47:47;11.00;1.00
51619;DHT22;38518;53.164;5.430;2023-02-01T14:50:37;10.40;1.00
51619;DHT22;38518;53.164;5.430;2023-02-01T14:58:58;10.20;1.00
51619;DHT22;38518;53.164;5.430;2023-02-01T15:04:00;9.80;2.20
51619;DHT22;38518;53.164;5.430;2023-02-01T15:06:32;9.90;6.00
51619;DHT22;38518;53.164;5.430;2023-02-01T15:14:23;10.10;1.00
51619;DHT22;38518;53.164;5.430;2023-02-01T15:16:49;9.50;6.60
51619;DHT22;38518;53.164;5.430;2023-02-01T15:19:21;9.30;11.90
51619;DHT22;38518;53.164;5.430;2023-02-01T15:21:49;9.10;12.90
51619;DHT22;38518;53.164;5.430;2023-02-01T15:24:29;8.80;20.10
51619;DHT22;38518;53.164;5.430;2023-02-01T15:27:02;8.40;28.00
51619;DHT22;38518;53.164;5.430;2023-02-01T15:29:29;8.40;40.00
51619;DHT22;38518;53.164;5.430;2023-02-01T15:31:59;7.90;53.60
51619;DHT22;38518;53.164;5.430;2023-02-01T15:34:49;7.70;68.80
51619;DHT22;38518;53.164;5.430;2023-02-01T15:37:16;7.70;79.80
51619;DHT22;38518;53.164;5.430;2023-02-01T15:42:53;7.40;97.00
51619;DHT22;38518;53.164;5.430;2023-02-01T15:45:31;8.40;99.70
51619;DHT22;38518;53.164;5.430;2023-02-01T15:47:58;7.30;99.90
51619;DHT22;38518;53.164;5.430;2023-02-01T15:50:30;7.50;99.90
51619;DHT22;38518;53.164;5.430;2023-02-01T15:52:56;7.30;99.90
51619;DHT22;38518;53.164;5.430;2023-02-01T15:55:36;6.00;99.90
51619;DHT22;38518;53.164;5.430;2023-02-01T15:58:18;7.10;99.90
51619;DHT22;38518;53.164;5.430;2023-02-01T16:00:53;7.10;99.90
51619;DHT22;38518;53.164;5.430;2023-02-01T16:03:33;7.00;99.90
51619;DHT22;38518;53.164;5.430;2023-02-01T16:06:26;5.20;99.90
51619;DHT22;38518;53.164;5.430;2023-02-01T16:08:54;7.00;99.90
51619;DHT22;38518;53.164;5.430;2023-02-01T16:11:31;6.80;99.90
51619;DHT22;38518;53.164;5.430;2023-02-01T16:13:59;6.80;99.90
51619;DHT22;38518;53.164;5.430;2023-02-01T16:16:26;6.90;99.90
51619;DHT22;38518;53.164;5.430;2023-02-01T16:18:52;6.70;99.90
51619;DHT22;38518;53.164;5.430;2023-02-01T16:21:18;6.10;99.90
51619;DHT22;38518;53.164;5.430;2023-02-01T16:23:48;6.70;99.90
51619;DHT22;38518;53.164;5.430;2023-02-01T16:26:18;6.60;99.90
51619;DHT22;38518;53.164;5.430;2023-02-01T16:28:44;6.60;99.90
51619;DHT22;38518;53.164;5.430;2023-02-01T16:31:12;6.60;99.90
51619;DHT22;38518;53.164;5.430;2023-02-01T16:33:46;6.50;99.90
51619;DHT22;38518;53.164;5.430;2023-02-01T16:36:11;6.50;99.90
51619;DHT22;38518;53.164;5.430;2023-02-01T16:38:39;6.50;99.90
51619;DHT22;38518;53.164;5.430;2023-02-01T16:41:05;6.50;99.90
51619;DHT22;38518;53.164;5.430;2023-02-01T16:43:31;6.60;99.90
51619;DHT22;38518;53.164;5.430;2023-02-01T16:46:00;6.40;99.90
51619;DHT22;38518;53.164;5.430;2023-02-01T16:48:30;5.60;99.90
51619;DHT22;38518;53.164;5.430;2023-02-01T16:50:58;6.40;92.30
51619;DHT22;38518;53.164;5.430;2023-02-01T16:53:27;6.40;92.40
51619;DHT22;38518;53.164;5.430;2023-02-01T16:55:53;6.30;80.10
51619;DHT22;38518;53.164;5.430;2023-02-01T16:58:20;6.30;87.30
51619;DHT22;38518;53.164;5.430;2023-02-01T17:00:47;6.40;89.30
51619;DHT22;38518;53.164;5.430;2023-02-01T17:03:13;6.50;92.30
51619;DHT22;38518;53.164;5.430;2023-02-01T17:05:44;6.10;97.30
51619;DHT22;38518;53.164;5.430;2023-02-01T17:08:14;6.10;99.90
51619;DHT22;38518;53.164;5.430;2023-02-01T17:10:41;6.20;99.90
51619;DHT22;38518;53.164;5.430;2023-02-01T17:13:16;6.10;99.90
51619;DHT22;38518;53.164;5.430;2023-02-01T17:15:53;6.10;99.90
51619;DHT22;38518;53.164;5.430;2023-02-01T17:18:21;6.10;99.90
51619;DHT22;38518;53.164;5.430;2023-02-01T17:20:47;6.20;99.90
51619;DHT22;38518;53.164;5.430;2023-02-01T17:23:15;6.10;99.90
51619;DHT22;38518;53.164;5.430;2023-02-01T17:25:41;6.10;99.90
51619;DHT22;38518;53.164;5.430;2023-02-01T17:28:08;6.10;99.90
51619;DHT22;38518;53.164;5.430;2023-02-01T17:30:34;6.00;99.90
51619;DHT22;38518;53.164;5.430;2023-02-01T17:33:00;5.90;99.90
51619;DHT22;38518;53.164;5.430;2023-02-01T17:35:27;6.00;99.90
51619;DHT22;38518;53.164;5.430;2023-02-01T17:37:54;6.00;99.90
51619;DHT22;38518;53.164;5.430;2023-02-01T17:40:20;6.00;99.90
51619;DHT22;38518;53.164;5.430;2023-02-01T17:42:46;6.00;99.90
51619;DHT22;38518;53.164;5.430;2023-02-01T17:47:44;6.00;99.90
51619;DHT22;38518;53.164;5.430;2023-02-01T17:50:10;5.50;99.90
51619;DHT22;38518;53.164;5.430;2023-02-01T17:52:35;6.00;99.90
51619;DHT22;38518;53.164;5.430;2023-02-01T17:55:01;6.00;99.90
51619;DHT22;38518;53.164;5.430;2023-02-01T17:57:29;5.90;99.90
51619;DHT22;38518;53.164;5.430;2023-02-01T17:59:54;6.00;99.90
51619;DHT22;38518;53.164;5.430;2023-02-01T18:02:22;5.90;99.90
51619;DHT22;38518;53.164;5.430;2023-02-01T18:04:51;6.10;99.90
51619;DHT22;38518;53.164;5.430;2023-02-01T18:07:17;5.80;99.90
51619;DHT22;38518;53.164;5.430;2023-02-01T18:09:43;5.80;99.90
51619;DHT22;38518;53.164;5.430;2023-02-01T18:12:19;6.60;99.90
51619;DHT22;38518;53.164;5.430;2023-02-01T18:14:45;5.80;99.90
51619;DHT22;38518;53.164;5.430;2023-02-01T18:17:10;5.90;99.90
51619;DHT22;38518;53.164;5.430;2023-02-01T18:19:38;5.80;99.90
51619;DHT22;38518;53.164;5.430;2023-02-01T18:22:05;5.80;99.90
51619;DHT22;38518;53.164;5.430;2023-02-01T18:24:31;6.20;99.90
51619;DHT22;38518;53.164;5.430;2023-02-01T18:26:59;6.00;99.90
51619;DHT22;38518;53.164;5.430;2023-02-01T18:29:25;5.80;99.20
51619;DHT22;38518;53.164;5.430;2023-02-01T18:31:51;5.80;86.90
51619;DHT22;38518;53.164;5.430;2023-02-01T18:34:17;5.80;91.10
51619;DHT22;38518;53.164;5.430;2023-02-01T18:36:50;5.80;83.20
51619;DHT22;38518;53.164;5.430;2023-02-01T18:39:16;5.70;82.60
51619;DHT22;38518;53.164;5.430;2023-02-01T18:41:44;5.60;87.50
51619;DHT22;38518;53.164;5.430;2023-02-01T18:44:14;5.70;79.20
51619;DHT22;38518;53.164;5.430;2023-02-01T18:46:40;5.60;82.30
51619;DHT22;38518;53.164;5.430;2023-02-01T18:49:06;5.40;82.80
51619;DHT22;38518;53.164;5.430;2023-02-01T18:51:33;5.70;82.30
51619;DHT22;38518;53.164;5.430;2023-02-01T18:53:59;5.50;87.00